This demonstration page uses our WeatherBlox Daily Observations layout. Learn more.

38.89511, -77.03637

Hourly Observations for September 21, 2017

Temp ( °F °C ) Dew Point ( °F °C ) Humidity (%) Winds ( mph kmh ) Pressure ( in mb ) Visibility ( mi km ) Precip ( " mm )
12:52 am 00:52 Clear 73 22.8 67 19.4 81 81 Calm 29.97 1015 10 16.09344 0 0
1:52 am 01:52 Clear 73 22.8 64 17.8 74 74 N 5 7 29.97 1015 10 16.09344 0 0
2:52 am 02:52 Clear 72 22.2 65 18.3 79 79 Calm 29.97 1015 10 16.09344 0 0
3:52 am 03:52 Clear 69 20.6 63 17.2 81 81 NNW 7 11 29.97 1015 10 16.09344 0 0
4:52 am 04:52 Clear 69 20.6 63 17.2 81 81 NNW 8 13 30 1016 10 16.09344 0 0
5:52 am 05:52 Clear 68 20 62 16.7 81 81 N 6 9 30 1016 10 16.09344 0 0
6:52 am 06:52 Mostly Clear 68 20 62 16.7 81 81 NNW 7 11 30.03 1017 10 16.09344 0 0
7:52 am 07:52 Mostly Sunny 71 21.7 63 17.2 76 76 N 6 9 30.06 1018 10 16.09344 0 0
8:52 am 08:52 Mostly Sunny 74 23.3 64 17.8 71 71 NNW 7 11 30.06 1018 10 16.09344 0 0
9:52 am 09:52 Mostly Sunny 78 25.6 65 18.3 64 64 N 5 7 30.06 1018 10 16.09344 0 0
10:52 am 10:52 Mostly Sunny 82 27.8 66 18.9 58 58 NNE 5 7 30.06 1018 10 16.09344 0 0
11:52 am 11:52 Partly Cloudy 84 28.9 65 18.3 53 53 Calm 30.03 1017 10 16.09344 0 0
12:52 pm 12:52 Mostly Cloudy 86 30 64 17.8 48 48 NNW 8 13 30.03 1017 10 16.09344 0 0
1:52 pm 13:52 Mostly Cloudy 86 30 64 17.8 48 48 N 10 17 30 1016 10 16.09344 0 0
2:52 pm 14:52 Mostly Cloudy 87 30.6 64 17.8 46 46 N 7 11 30 1016 10 16.09344 0 0
3:52 pm 15:52 Partly Cloudy 86 30 65 18.3 49 49 NW 8 13 30 1016 10 16.09344 0 0
4:52 pm 16:52 Partly Cloudy 85 29.4 65 18.3 51 51 NNW 5 7 30 1016 10 16.09344 0 0
5:52 pm 17:52 Partly Cloudy 85 29.4 65 18.3 51 51 NW 8 13 30 1016 10 16.09344 0 0
6:52 pm 18:52 Mostly Cloudy 82 27.8 65 18.3 56 56 N 7 11 30 1016 10 16.09344 0 0
7:52 pm 19:52 Mostly Cloudy 81 27.2 66 18.9 61 61 NNW 8 13 30 1016 10 16.09344 0 0
8:52 pm 20:52 Mostly Cloudy 80 26.7 66 18.9 62 62 N 7 11 30 1016 10 16.09344 0 0
9:52 pm 21:52 Mostly Cloudy 77 25 68 20 74 74 NNW 6 9 30.03 1017 10 16.09344 0 0
10:52 pm 22:52 Mostly Cloudy 76 24.4 72 22.2 88 88 Calm 30.03 1017 10 16.09344 0 0
11:52 pm 23:52 Cloudy 76 24.4 70 21.1 82 82 Calm 30.03 1017 10 16.09344 0 0

Powered by AerisWeather